sensor_id;sensor_type;location;lat;lon;timestamp;temperature;humidity
37646;DHT22;23489;49.600;6.138;2023-05-07T00:00:17;12.60;99.90
37646;DHT22;23489;49.600;6.138;2023-05-07T00:02:44;12.60;99.90
37646;DHT22;23489;49.600;6.138;2023-05-07T00:05:10;12.60;99.90
37646;DHT22;23489;49.600;6.138;2023-05-07T00:07:36;12.60;99.90
37646;DHT22;23489;49.600;6.138;2023-05-07T00:10:03;12.50;99.90
37646;DHT22;23489;49.600;6.138;2023-05-07T00:12:29;12.50;99.90
37646;DHT22;23489;49.600;6.138;2023-05-07T00:14:57;12.50;99.90
37646;DHT22;23489;49.600;6.138;2023-05-07T00:17:23;12.50;99.90
37646;DHT22;23489;49.600;6.138;2023-05-07T00:19:48;12.50;99.90
37646;DHT22;23489;49.600;6.138;2023-05-07T00:22:14;12.50;99.90
37646;DHT22;23489;49.600;6.138;2023-05-07T00:24:39;12.40;99.90
37646;DHT22;23489;49.600;6.138;2023-05-07T00:27:05;12.40;99.90
37646;DHT22;23489;49.600;6.138;2023-05-07T00:29:31;12.40;99.90
37646;DHT22;23489;49.600;6.138;2023-05-07T00:31:56;12.40;99.90
37646;DHT22;23489;49.600;6.138;2023-05-07T00:34:22;12.40;99.90
37646;DHT22;23489;49.600;6.138;2023-05-07T00:36:48;12.40;99.90
37646;DHT22;23489;49.600;6.138;2023-05-07T00:39:13;12.30;99.90
37646;DHT22;23489;49.600;6.138;2023-05-07T00:41:39;12.30;99.90
37646;DHT22;23489;49.600;6.138;2023-05-07T00:44:06;12.30;99.90
37646;DHT22;23489;49.600;6.138;2023-05-07T00:46:32;12.30;99.90
37646;DHT22;23489;49.600;6.138;2023-05-07T00:48:59;12.30;99.90
37646;DHT22;23489;49.600;6.138;2023-05-07T00:51:25;12.20;99.90
37646;DHT22;23489;49.600;6.138;2023-05-07T00:53:53;12.20;99.90
37646;DHT22;23489;49.600;6.138;2023-05-07T00:56:21;12.10;99.90
37646;DHT22;23489;49.600;6.138;2023-05-07T00:58:47;12.20;99.90
37646;DHT22;23489;49.600;6.138;2023-05-07T01:01:12;12.20;99.90
37646;DHT22;23489;49.600;6.138;2023-05-07T01:03:38;12.10;99.90
37646;DHT22;23489;49.600;6.138;2023-05-07T01:06:05;12.10;99.90
37646;DHT22;23489;49.600;6.138;2023-05-07T01:08:32;12.10;99.90
37646;DHT22;23489;49.600;6.138;2023-05-07T01:10:58;12.10;99.90
37646;DHT22;23489;49.600;6.138;2023-05-07T01:13:24;12.10;99.90
37646;DHT22;23489;49.600;6.138;2023-05-07T01:15:50;12.10;99.90
37646;DHT22;23489;49.600;6.138;2023-05-07T01:18:16;12.00;99.90
37646;DHT22;23489;49.600;6.138;2023-05-07T01:20:42;12.00;99.90
37646;DHT22;23489;49.600;6.138;2023-05-07T01:23:08;11.90;99.90
37646;DHT22;23489;49.600;6.138;2023-05-07T01:25:36;11.90;99.90
37646;DHT22;23489;49.600;6.138;2023-05-07T01:28:02;11.90;99.90
37646;DHT22;23489;49.600;6.138;2023-05-07T01:30:33;11.80;99.90
37646;DHT22;23489;49.600;6.138;2023-05-07T01:33:11;11.80;99.90
37646;DHT22;23489;49.600;6.138;2023-05-07T01:35:41;11.80;99.90
37646;DHT22;23489;49.600;6.138;2023-05-07T01:38:08;11.70;99.90
37646;DHT22;23489;49.600;6.138;2023-05-07T01:40:34;11.80;99.90
37646;DHT22;23489;49.600;6.138;2023-05-07T01:43:02;11.70;99.90
37646;DHT22;23489;49.600;6.138;2023-05-07T01:45:29;11.70;99.90
37646;DHT22;23489;49.600;6.138;2023-05-07T01:47:57;11.70;99.90
37646;DHT22;23489;49.600;6.138;2023-05-07T01:50:23;11.70;99.90
37646;DHT22;23489;49.600;6.138;2023-05-07T01:52:51;11.70;99.90
37646;DHT22;23489;49.600;6.138;2023-05-07T01:55:16;11.60;99.90
37646;DHT22;23489;49.600;6.138;2023-05-07T01:57:42;11.60;99.90
37646;DHT22;23489;49.600;6.138;2023-05-07T02:00:08;11.60;99.90
37646;DHT22;23489;49.600;6.138;2023-05-07T02:02:41;11.60;99.90
37646;DHT22;23489;49.600;6.138;2023-05-07T02:05:14;11.50;99.90
37646;DHT22;23489;49.600;6.138;2023-05-07T02:07:40;11.50;99.90
37646;DHT22;23489;49.600;6.138;2023-05-07T02:10:07;11.50;99.90
37646;DHT22;23489;49.600;6.138;2023-05-07T02:12:32;11.50;99.90
37646;DHT22;23489;49.600;6.138;2023-05-07T02:14:58;11.40;99.90
37646;DHT22;23489;49.600;6.138;2023-05-07T02:17:24;11.40;99.90
37646;DHT22;23489;49.600;6.138;2023-05-07T02:19:50;11.40;99.90
37646;DHT22;23489;49.600;6.138;2023-05-07T02:22:15;11.40;99.90
37646;DHT22;23489;49.600;6.138;2023-05-07T02:24:41;11.30;99.90
37646;DHT22;23489;49.600;6.138;2023-05-07T02:27:06;11.30;99.90
37646;DHT22;23489;49.600;6.138;2023-05-07T02:29:32;11.30;99.90
37646;DHT22;23489;49.600;6.138;2023-05-07T02:31:58;11.20;99.90
37646;DHT22;23489;49.600;6.138;2023-05-07T02:34:24;11.20;99.90
37646;DHT22;23489;49.600;6.138;2023-05-07T02:36:50;11.20;99.90
37646;DHT22;23489;49.600;6.138;2023-05-07T02:39:19;11.20;99.90
37646;DHT22;23489;49.600;6.138;2023-05-07T02:41:45;11.10;99.90
37646;DHT22;23489;49.600;6.138;2023-05-07T02:44:10;11.10;99.90
37646;DHT22;23489;49.600;6.138;2023-05-07T02:46:37;11.10;99.90
37646;DHT22;23489;49.600;6.138;2023-05-07T02:49:07;11.00;99.90
37646;DHT22;23489;49.600;6.138;2023-05-07T02:51:33;11.10;99.90
37646;DHT22;23489;49.600;6.138;2023-05-07T02:54:02;11.00;99.90
37646;DHT22;23489;49.600;6.138;2023-05-07T02:56:28;11.00;99.90
37646;DHT22;23489;49.600;6.138;2023-05-07T02:58:54;10.90;99.90
37646;DHT22;23489;49.600;6.138;2023-05-07T03:01:23;10.90;99.90
37646;DHT22;23489;49.600;6.138;2023-05-07T03:03:56;10.80;99.90
37646;DHT22;23489;49.600;6.138;2023-05-07T03:06:21;10.80;99.90
37646;DHT22;23489;49.600;6.138;2023-05-07T03:08:47;10.80;99.90
37646;DHT22;23489;49.600;6.138;2023-05-07T03:11:13;10.70;99.90
37646;DHT22;23489;49.600;6.138;2023-05-07T03:13:39;10.70;99.90
37646;DHT22;23489;49.600;6.138;2023-05-07T03:16:04;10.70;99.90
37646;DHT22;23489;49.600;6.138;2023-05-07T03:18:30;10.60;99.90
37646;DHT22;23489;49.600;6.138;2023-05-07T03:20:56;10.60;99.90
37646;DHT22;23489;49.600;6.138;2023-05-07T03:23:22;10.60;99.90
37646;DHT22;23489;49.600;6.138;2023-05-07T03:25:48;10.60;99.90
37646;DHT22;23489;49.600;6.138;2023-05-07T03:28:14;10.50;99.90
37646;DHT22;23489;49.600;6.138;2023-05-07T03:30:46;10.60;99.90
37646;DHT22;23489;49.600;6.138;2023-05-07T03:33:12;10.60;99.90
37646;DHT22;23489;49.600;6.138;2023-05-07T03:35:37;10.60;99.90
37646;DHT22;23489;49.600;6.138;2023-05-07T03:38:03;10.60;99.90
37646;DHT22;23489;49.600;6.138;2023-05-07T03:40:33;10.60;99.90
37646;DHT22;23489;49.600;6.138;2023-05-07T03:42:59;10.60;99.90
37646;DHT22;23489;49.600;6.138;2023-05-07T03:45:26;10.50;99.90
37646;DHT22;23489;49.600;6.138;2023-05-07T03:48:03;10.50;99.90
37646;DHT22;23489;49.600;6.138;2023-05-07T03:50:29;10.50;99.90
37646;DHT22;23489;49.600;6.138;2023-05-07T03:52:55;10.50;99.90
37646;DHT22;23489;49.600;6.138;2023-05-07T03:55:22;10.50;99.90
37646;DHT22;23489;49.600;6.138;2023-05-07T03:57:52;10.50;99.90
37646;DHT22;23489;49.600;6.138;2023-05-07T04:00:19;10.50;99.90
37646;DHT22;23489;49.600;6.138;2023-05-07T04:02:48;10.50;99.90
37646;DHT22;23489;49.600;6.138;2023-05-07T04:05:18;10.50;99.90
37646;DHT22;23489;49.600;6.138;2023-05-07T04:07:46;10.50;99.90
37646;DHT22;23489;49.600;6.138;2023-05-07T04:10:15;10.50;99.90
37646;DHT22;23489;49.600;6.138;2023-05-07T04:12:43;10.60;99.90
37646;DHT22;23489;49.600;6.138;2023-05-07T04:15:13;10.60;99.90
37646;DHT22;23489;49.600;6.138;2023-05-07T04:17:38;10.60;99.90
37646;DHT22;23489;49.600;6.138;2023-05-07T04:20:05;10.60;99.90
37646;DHT22;23489;49.600;6.138;2023-05-07T04:22:33;10.70;99.90
37646;DHT22;23489;49.600;6.138;2023-05-07T04:25:00;10.70;99.90
37646;DHT22;23489;49.600;6.138;2023-05-07T04:27:26;10.70;99.90
37646;DHT22;23489;49.600;6.138;2023-05-07T04:29:54;10.60;99.90
37646;DHT22;23489;49.600;6.138;2023-05-07T04:32:22;10.70;99.90
37646;DHT22;23489;49.600;6.138;2023-05-07T04:34:48;10.70;99.90
37646;DHT22;23489;49.600;6.138;2023-05-07T04:37:14;10.70;99.90
37646;DHT22;23489;49.600;6.138;2023-05-07T04:39:40;10.80;99.90
37646;DHT22;23489;49.600;6.138;2023-05-07T04:42:06;10.80;99.90
37646;DHT22;23489;49.600;6.138;2023-05-07T04:44:35;10.90;99.90
37646;DHT22;23489;49.600;6.138;2023-05-07T04:47:02;10.90;99.90
37646;DHT22;23489;49.600;6.138;2023-05-07T04:49:28;11.00;99.90
37646;DHT22;23489;49.600;6.138;2023-05-07T04:51:55;11.10;99.90
37646;DHT22;23489;49.600;6.138;2023-05-07T04:54:22;11.20;99.90
37646;DHT22;23489;49.600;6.138;2023-05-07T04:56:48;11.30;99.90
37646;DHT22;23489;49.600;6.138;2023-05-07T04:59:13;11.40;99.90
37646;DHT22;23489;49.600;6.138;2023-05-07T05:01:39;11.50;99.90
37646;DHT22;23489;49.600;6.138;2023-05-07T05:04:06;11.60;99.90
37646;DHT22;23489;49.600;6.138;2023-05-07T05:06:31;11.70;99.90
37646;DHT22;23489;49.600;6.138;2023-05-07T05:08:58;11.80;99.90
37646;DHT22;23489;49.600;6.138;2023-05-07T05:11:26;11.80;99.90
37646;DHT22;23489;49.600;6.138;2023-05-07T05:13:52;11.80;99.90
37646;DHT22;23489;49.600;6.138;2023-05-07T05:16:20;11.80;99.90
37646;DHT22;23489;49.600;6.138;2023-05-07T05:18:45;11.90;99.90
37646;DHT22;23489;49.600;6.138;2023-05-07T05:21:13;11.90;99.90
37646;DHT22;23489;49.600;6.138;2023-05-07T05:23:40;12.00;99.90
37646;DHT22;23489;49.600;6.138;2023-05-07T05:26:06;12.10;99.90
37646;DHT22;23489;49.600;6.138;2023-05-07T05:28:32;12.20;99.90
37646;DHT22;23489;49.600;6.138;2023-05-07T05:30:58;12.30;99.90
37646;DHT22;23489;49.600;6.138;2023-05-07T05:33:26;12.50;99.90
37646;DHT22;23489;49.600;6.138;2023-05-07T05:35:53;12.70;99.90
37646;DHT22;23489;49.600;6.138;2023-05-07T05:38:19;12.80;99.90
37646;DHT22;23489;49.600;6.138;2023-05-07T05:40:47;12.80;99.90
37646;DHT22;23489;49.600;6.138;2023-05-07T05:43:14;13.00;99.90
37646;DHT22;23489;49.600;6.138;2023-05-07T05:45:40;13.00;99.90
37646;DHT22;23489;49.600;6.138;2023-05-07T05:48:05;13.10;99.90
37646;DHT22;23489;49.600;6.138;2023-05-07T05:50:32;13.20;99.90
37646;DHT22;23489;49.600;6.138;2023-05-07T05:52:58;13.40;99.90
37646;DHT22;23489;49.600;6.138;2023-05-07T05:55:24;13.70;99.90
37646;DHT22;23489;49.600;6.138;2023-05-07T05:57:50;14.00;99.90
37646;DHT22;23489;49.600;6.138;2023-05-07T06:00:16;14.20;99.90
37646;DHT22;23489;49.600;6.138;2023-05-07T06:02:45;14.30;99.90
37646;DHT22;23489;49.600;6.138;2023-05-07T06:05:14;14.40;99.90
37646;DHT22;23489;49.600;6.138;2023-05-07T06:07:40;14.40;99.90
37646;DHT22;23489;49.600;6.138;2023-05-07T06:10:07;14.40;99.90
37646;DHT22;23489;49.600;6.138;2023-05-07T06:12:33;14.60;99.90
37646;DHT22;23489;49.600;6.138;2023-05-07T06:14:58;14.70;99.90
37646;DHT22;23489;49.600;6.138;2023-05-07T06:17:24;14.80;99.90
37646;DHT22;23489;49.600;6.138;2023-05-07T06:19:50;14.80;99.90
37646;DHT22;23489;49.600;6.138;2023-05-07T06:22:18;14.90;99.90
37646;DHT22;23489;49.600;6.138;2023-05-07T06:24:44;14.90;99.90
37646;DHT22;23489;49.600;6.138;2023-05-07T06:27:10;15.00;99.90
37646;DHT22;23489;49.600;6.138;2023-05-07T06:29:35;15.10;99.90
37646;DHT22;23489;49.600;6.138;2023-05-07T06:32:09;15.20;99.90
37646;DHT22;23489;49.600;6.138;2023-05-07T06:34:35;15.30;99.90
37646;DHT22;23489;49.600;6.138;2023-05-07T06:37:01;15.40;99.90
37646;DHT22;23489;49.600;6.138;2023-05-07T06:39:37;15.40;99.90
37646;DHT22;23489;49.600;6.138;2023-05-07T06:42:03;15.40;99.90
37646;DHT22;23489;49.600;6.138;2023-05-07T06:44:32;15.40;99.90
37646;DHT22;23489;49.600;6.138;2023-05-07T06:47:05;15.50;99.90
37646;DHT22;23489;49.600;6.138;2023-05-07T06:49:31;15.70;99.90
37646;DHT22;23489;49.600;6.138;2023-05-07T06:51:57;15.90;99.90
37646;DHT22;23489;49.600;6.138;2023-05-07T06:54:23;15.90;99.90
37646;DHT22;23489;49.600;6.138;2023-05-07T06:56:48;16.00;99.90
37646;DHT22;23489;49.600;6.138;2023-05-07T06:59:14;16.20;99.90
37646;DHT22;23489;49.600;6.138;2023-05-07T07:01:40;16.30;99.90
37646;DHT22;23489;49.600;6.138;2023-05-07T07:04:08;16.40;99.90
37646;DHT22;23489;49.600;6.138;2023-05-07T07:06:34;16.40;99.90
37646;DHT22;23489;49.600;6.138;2023-05-07T07:09:03;16.60;99.90
37646;DHT22;23489;49.600;6.138;2023-05-07T07:11:29;16.70;99.90
37646;DHT22;23489;49.600;6.138;2023-05-07T07:13:55;16.70;99.90
37646;DHT22;23489;49.600;6.138;2023-05-07T07:16:21;16.80;99.90
37646;DHT22;23489;49.600;6.138;2023-05-07T07:18:48;16.90;99.90
37646;DHT22;23489;49.600;6.138;2023-05-07T07:21:13;16.90;99.90
37646;DHT22;23489;49.600;6.138;2023-05-07T07:23:39;17.00;99.90
37646;DHT22;23489;49.600;6.138;2023-05-07T07:26:05;16.90;99.90
37646;DHT22;23489;49.600;6.138;2023-05-07T07:28:32;17.00;99.90
37646;DHT22;23489;49.600;6.138;2023-05-07T07:30:57;17.40;99.90
37646;DHT22;23489;49.600;6.138;2023-05-07T07:33:23;17.40;99.90
37646;DHT22;23489;49.600;6.138;2023-05-07T07:35:49;17.50;99.90
37646;DHT22;23489;49.600;6.138;2023-05-07T07:38:15;17.70;99.90
37646;DHT22;23489;49.600;6.138;2023-05-07T07:40:41;17.70;99.90
37646;DHT22;23489;49.600;6.138;2023-05-07T07:43:07;17.80;99.90
37646;DHT22;23489;49.600;6.138;2023-05-07T07:45:33;18.10;99.90
37646;DHT22;23489;49.600;6.138;2023-05-07T07:48:00;18.40;99.90
37646;DHT22;23489;49.600;6.138;2023-05-07T07:50:26;18.40;99.90
37646;DHT22;23489;49.600;6.138;2023-05-07T07:52:52;18.40;99.90
37646;DHT22;23489;49.600;6.138;2023-05-07T07:55:19;18.40;99.90
37646;DHT22;23489;49.600;6.138;2023-05-07T07:57:48;18.50;99.90
37646;DHT22;23489;49.600;6.138;2023-05-07T08:00:14;18.70;99.90
37646;DHT22;23489;49.600;6.138;2023-05-07T08:02:43;18.80;99.90
37646;DHT22;23489;49.600;6.138;2023-05-07T08:05:12;18.90;99.90
37646;DHT22;23489;49.600;6.138;2023-05-07T08:07:39;19.30;99.90
37646;DHT22;23489;49.600;6.138;2023-05-07T08:10:04;19.70;99.90
37646;DHT22;23489;49.600;6.138;2023-05-07T08:12:31;19.80;99.90
37646;DHT22;23489;49.600;6.138;2023-05-07T08:14:56;20.10;99.90
37646;DHT22;23489;49.600;6.138;2023-05-07T08:17:22;20.00;99.90
37646;DHT22;23489;49.600;6.138;2023-05-07T08:19:49;20.30;99.90
37646;DHT22;23489;49.600;6.138;2023-05-07T08:22:14;20.90;99.90
37646;DHT22;23489;49.600;6.138;2023-05-07T08:24:41;21.30;99.90
37646;DHT22;23489;49.600;6.138;2023-05-07T08:27:07;22.30;99.90
37646;DHT22;23489;49.600;6.138;2023-05-07T08:29:33;23.30;99.90
37646;DHT22;23489;49.600;6.138;2023-05-07T08:32:00;24.40;99.90
37646;DHT22;23489;49.600;6.138;2023-05-07T08:34:25;25.30;99.90
37646;DHT22;23489;49.600;6.138;2023-05-07T08:36:53;26.10;99.90
37646;DHT22;23489;49.600;6.138;2023-05-07T08:39:21;26.40;99.90
37646;DHT22;23489;49.600;6.138;2023-05-07T08:41:52;25.80;99.90
37646;DHT22;23489;49.600;6.138;2023-05-07T08:44:22;25.20;99.90
37646;DHT22;23489;49.600;6.138;2023-05-07T08:46:51;24.60;99.90
37646;DHT22;23489;49.600;6.138;2023-05-07T08:49:20;26.10;99.50
37646;DHT22;23489;49.600;6.138;2023-05-07T08:51:46;25.90;98.40
37646;DHT22;23489;49.600;6.138;2023-05-07T08:54:16;26.00;97.50
37646;DHT22;23489;49.600;6.138;2023-05-07T08:56:42;26.00;96.10
37646;DHT22;23489;49.600;6.138;2023-05-07T08:59:07;26.30;95.90
37646;DHT22;23489;49.600;6.138;2023-05-07T09:01:33;26.20;96.00
37646;DHT22;23489;49.600;6.138;2023-05-07T09:04:01;27.20;94.50
37646;DHT22;23489;49.600;6.138;2023-05-07T09:06:29;27.50;93.70
37646;DHT22;23489;49.600;6.138;2023-05-07T09:08:55;27.50;93.10
37646;DHT22;23489;49.600;6.138;2023-05-07T09:11:27;27.50;91.90
37646;DHT22;23489;49.600;6.138;2023-05-07T09:13:56;27.60;91.60
37646;DHT22;23489;49.600;6.138;2023-05-07T09:16:25;27.40;90.40
37646;DHT22;23489;49.600;6.138;2023-05-07T09:18:52;27.90;90.30
37646;DHT22;23489;49.600;6.138;2023-05-07T09:21:19;28.20;88.30
37646;DHT22;23489;49.600;6.138;2023-05-07T09:23:50;29.00;85.70
37646;DHT22;23489;49.600;6.138;2023-05-07T09:26:16;28.90;86.00
37646;DHT22;23489;49.600;6.138;2023-05-07T09:28:44;29.60;81.50
37646;DHT22;23489;49.600;6.138;2023-05-07T09:31:12;29.60;80.00
37646;DHT22;23489;49.600;6.138;2023-05-07T09:33:40;30.00;78.50
37646;DHT22;23489;49.600;6.138;2023-05-07T09:36:08;29.10;79.80
37646;DHT22;23489;49.600;6.138;2023-05-07T09:38:37;28.40;80.60
37646;DHT22;23489;49.600;6.138;2023-05-07T09:41:05;27.40;82.60
37646;DHT22;23489;49.600;6.138;2023-05-07T09:43:37;26.60;85.00
37646;DHT22;23489;49.600;6.138;2023-05-07T09:46:13;27.20;83.90
37646;DHT22;23489;49.600;6.138;2023-05-07T09:48:42;27.60;82.40
37646;DHT22;23489;49.600;6.138;2023-05-07T09:51:39;27.50;82.30
37646;DHT22;23489;49.600;6.138;2023-05-07T09:54:07;26.90;82.70
37646;DHT22;23489;49.600;6.138;2023-05-07T09:56:35;26.70;82.80
37646;DHT22;23489;49.600;6.138;2023-05-07T09:59:04;26.40;84.20
37646;DHT22;23489;49.600;6.138;2023-05-07T10:01:33;26.40;84.10
37646;DHT22;23489;49.600;6.138;2023-05-07T10:04:02;26.50;84.60
37646;DHT22;23489;49.600;6.138;2023-05-07T10:06:30;26.90;84.00
37646;DHT22;23489;49.600;6.138;2023-05-07T10:08:56;28.10;81.70
37646;DHT22;23489;49.600;6.138;2023-05-07T10:11:23;28.70;79.40
37646;DHT22;23489;49.600;6.138;2023-05-07T10:13:50;28.50;79.50
37646;DHT22;23489;49.600;6.138;2023-05-07T10:16:18;28.80;78.60
37646;DHT22;23489;49.600;6.138;2023-05-07T10:18:47;28.70;78.10
37646;DHT22;23489;49.600;6.138;2023-05-07T10:21:18;28.60;78.60
37646;DHT22;23489;49.600;6.138;2023-05-07T10:26:24;28.10;79.20
37646;DHT22;23489;49.600;6.138;2023-05-07T10:28:53;27.40;80.60
37646;DHT22;23489;49.600;6.138;2023-05-07T10:33:51;27.30;81.90
37646;DHT22;23489;49.600;6.138;2023-05-07T10:36:20;27.10;83.20
37646;DHT22;23489;49.600;6.138;2023-05-07T10:38:47;26.90;84.00
37646;DHT22;23489;49.600;6.138;2023-05-07T10:41:15;27.00;85.40
37646;DHT22;23489;49.600;6.138;2023-05-07T10:43:44;27.00;86.00
37646;DHT22;23489;49.600;6.138;2023-05-07T10:51:36;25.20;90.10
37646;DHT22;23489;49.600;6.138;2023-05-07T10:56:47;24.60;91.50
37646;DHT22;23489;49.600;6.138;2023-05-07T11:01:52;24.30;92.30
37646;DHT22;23489;49.600;6.138;2023-05-07T11:04:24;24.00;92.80
37646;DHT22;23489;49.600;6.138;2023-05-07T11:09:54;24.20;93.20
37646;DHT22;23489;49.600;6.138;2023-05-07T11:15:15;23.60;93.50
37646;DHT22;23489;49.600;6.138;2023-05-07T11:17:58;23.10;94.40
37646;DHT22;23489;49.600;6.138;2023-05-07T11:20:58;22.90;94.90
37646;DHT22;23489;49.600;6.138;2023-05-07T11:26:27;22.20;96.40
37646;DHT22;23489;49.600;6.138;2023-05-07T11:28:54;22.40;96.60
37646;DHT22;23489;49.600;6.138;2023-05-07T11:31:26;22.20;97.10
37646;DHT22;23489;49.600;6.138;2023-05-07T11:33:54;22.30;97.40
37646;DHT22;23489;49.600;6.138;2023-05-07T11:36:22;22.10;98.00
37646;DHT22;23489;49.600;6.138;2023-05-07T11:38:50;21.90;98.40
37646;DHT22;23489;49.600;6.138;2023-05-07T11:41:16;21.80;99.00
37646;DHT22;23489;49.600;6.138;2023-05-07T11:43:56;22.00;99.30
37646;DHT22;23489;49.600;6.138;2023-05-07T11:46:22;22.00;99.00
37646;DHT22;23489;49.600;6.138;2023-05-07T11:48:47;22.30;98.90
37646;DHT22;23489;49.600;6.138;2023-05-07T11:51:19;22.60;98.90
37646;DHT22;23489;49.600;6.138;2023-05-07T11:53:45;22.80;98.40
37646;DHT22;23489;49.600;6.138;2023-05-07T11:56:13;22.70;98.30
37646;DHT22;23489;49.600;6.138;2023-05-07T11:58:39;22.30;98.80
37646;DHT22;23489;49.600;6.138;2023-05-07T12:01:08;22.20;99.30
37646;DHT22;23489;49.600;6.138;2023-05-07T12:03:35;22.40;99.00
37646;DHT22;23489;49.600;6.138;2023-05-07T12:06:02;22.60;98.90
37646;DHT22;23489;49.600;6.138;2023-05-07T12:08:30;22.90;98.90
37646;DHT22;23489;49.600;6.138;2023-05-07T12:10:56;23.00;98.60
37646;DHT22;23489;49.600;6.138;2023-05-07T12:13:23;23.10;98.40
37646;DHT22;23489;49.600;6.138;2023-05-07T12:15:54;22.80;98.60
37646;DHT22;23489;49.600;6.138;2023-05-07T12:18:21;22.90;98.80
37646;DHT22;23489;49.600;6.138;2023-05-07T12:20:47;22.90;98.60
37646;DHT22;23489;49.600;6.138;2023-05-07T12:23:14;22.60;99.00
37646;DHT22;23489;49.600;6.138;2023-05-07T12:25:41;22.80;99.10
37646;DHT22;23489;49.600;6.138;2023-05-07T12:28:18;22.80;99.10
37646;DHT22;23489;49.600;6.138;2023-05-07T12:30:46;22.80;99.20
37646;DHT22;23489;49.600;6.138;2023-05-07T12:33:13;22.50;99.50
37646;DHT22;23489;49.600;6.138;2023-05-07T12:35:41;22.20;99.70
37646;DHT22;23489;49.600;6.138;2023-05-07T12:38:09;22.20;99.90
37646;DHT22;23489;49.600;6.138;2023-05-07T12:40:39;21.90;99.90
37646;DHT22;23489;49.600;6.138;2023-05-07T12:43:05;21.80;99.90
37646;DHT22;23489;49.600;6.138;2023-05-07T12:45:31;21.80;99.90
37646;DHT22;23489;49.600;6.138;2023-05-07T12:48:01;21.70;99.90
37646;DHT22;23489;49.600;6.138;2023-05-07T12:50:31;21.60;99.90
37646;DHT22;23489;49.600;6.138;2023-05-07T12:52:57;21.40;99.90
37646;DHT22;23489;49.600;6.138;2023-05-07T12:55:23;21.40;99.90
37646;DHT22;23489;49.600;6.138;2023-05-07T12:57:49;21.50;99.90
37646;DHT22;23489;49.600;6.138;2023-05-07T13:00:16;21.70;99.90
37646;DHT22;23489;49.600;6.138;2023-05-07T13:02:42;21.70;99.90
37646;DHT22;23489;49.600;6.138;2023-05-07T13:05:11;21.70;99.90
37646;DHT22;23489;49.600;6.138;2023-05-07T13:07:37;21.60;99.90
37646;DHT22;23489;49.600;6.138;2023-05-07T13:10:03;21.50;99.90
37646;DHT22;23489;49.600;6.138;2023-05-07T13:12:29;21.30;99.90
37646;DHT22;23489;49.600;6.138;2023-05-07T13:14:55;21.10;99.90
37646;DHT22;23489;49.600;6.138;2023-05-07T13:17:20;21.20;99.90
37646;DHT22;23489;49.600;6.138;2023-05-07T13:19:46;21.40;99.90
37646;DHT22;23489;49.600;6.138;2023-05-07T13:22:12;21.50;99.90
37646;DHT22;23489;49.600;6.138;2023-05-07T13:24:37;21.50;99.90
37646;DHT22;23489;49.600;6.138;2023-05-07T13:27:03;21.40;99.90
37646;DHT22;23489;49.600;6.138;2023-05-07T13:29:29;21.40;99.90
37646;DHT22;23489;49.600;6.138;2023-05-07T13:31:59;21.40;99.90
37646;DHT22;23489;49.600;6.138;2023-05-07T13:34:25;21.50;99.90
37646;DHT22;23489;49.600;6.138;2023-05-07T13:36:51;21.50;99.90
37646;DHT22;23489;49.600;6.138;2023-05-07T13:39:16;21.40;99.90
37646;DHT22;23489;49.600;6.138;2023-05-07T13:41:42;21.30;99.90
37646;DHT22;23489;49.600;6.138;2023-05-07T13:44:08;21.20;99.90
37646;DHT22;23489;49.600;6.138;2023-05-07T13:46:33;21.20;99.90
37646;DHT22;23489;49.600;6.138;2023-05-07T13:48:59;21.30;99.90
37646;DHT22;23489;49.600;6.138;2023-05-07T13:51:25;21.40;99.90
37646;DHT22;23489;49.600;6.138;2023-05-07T13:53:51;21.50;99.90
37646;DHT22;23489;49.600;6.138;2023-05-07T13:56:17;21.50;99.90
37646;DHT22;23489;49.600;6.138;2023-05-07T13:58:43;21.40;99.90
37646;DHT22;23489;49.600;6.138;2023-05-07T14:01:09;21.50;99.90
37646;DHT22;23489;49.600;6.138;2023-05-07T14:03:34;21.40;99.90
37646;DHT22;23489;49.600;6.138;2023-05-07T14:06:03;21.40;99.90
37646;DHT22;23489;49.600;6.138;2023-05-07T14:08:29;21.30;99.90
37646;DHT22;23489;49.600;6.138;2023-05-07T14:10:55;21.20;99.90
37646;DHT22;23489;49.600;6.138;2023-05-07T14:13:20;21.40;99.90
37646;DHT22;23489;49.600;6.138;2023-05-07T14:15:46;21.30;99.90
37646;DHT22;23489;49.600;6.138;2023-05-07T14:18:13;21.40;99.90
37646;DHT22;23489;49.600;6.138;2023-05-07T14:20:39;21.60;99.90
37646;DHT22;23489;49.600;6.138;2023-05-07T14:23:05;21.60;99.90
37646;DHT22;23489;49.600;6.138;2023-05-07T14:25:30;21.60;99.90
37646;DHT22;23489;49.600;6.138;2023-05-07T14:27:56;21.70;99.90
37646;DHT22;23489;49.600;6.138;2023-05-07T14:30:21;21.70;99.90
37646;DHT22;23489;49.600;6.138;2023-05-07T14:32:50;21.50;99.90
37646;DHT22;23489;49.600;6.138;2023-05-07T14:35:16;21.30;99.90
37646;DHT22;23489;49.600;6.138;2023-05-07T14:37:42;21.40;99.90
37646;DHT22;23489;49.600;6.138;2023-05-07T14:40:08;21.60;99.90
37646;DHT22;23489;49.600;6.138;2023-05-07T14:42:34;21.80;99.90
37646;DHT22;23489;49.600;6.138;2023-05-07T14:44:59;21.90;99.90
37646;DHT22;23489;49.600;6.138;2023-05-07T14:47:25;21.90;99.90
37646;DHT22;23489;49.600;6.138;2023-05-07T14:49:50;21.90;99.90
37646;DHT22;23489;49.600;6.138;2023-05-07T14:52:16;22.00;99.90
37646;DHT22;23489;49.600;6.138;2023-05-07T14:54:42;21.90;99.90
37646;DHT22;23489;49.600;6.138;2023-05-07T14:57:09;21.80;99.90
37646;DHT22;23489;49.600;6.138;2023-05-07T14:59:35;21.80;99.90
37646;DHT22;23489;49.600;6.138;2023-05-07T15:02:01;21.90;99.90
37646;DHT22;23489;49.600;6.138;2023-05-07T15:04:27;22.10;99.90
37646;DHT22;23489;49.600;6.138;2023-05-07T15:06:52;22.20;99.90
37646;DHT22;23489;49.600;6.138;2023-05-07T15:09:21;22.30;99.90
37646;DHT22;23489;49.600;6.138;2023-05-07T15:11:47;22.40;99.90
37646;DHT22;23489;49.600;6.138;2023-05-07T15:14:12;22.40;99.90
37646;DHT22;23489;49.600;6.138;2023-05-07T15:16:38;22.40;99.90
37646;DHT22;23489;49.600;6.138;2023-05-07T15:19:03;22.40;99.90
37646;DHT22;23489;49.600;6.138;2023-05-07T15:21:29;22.20;99.90
37646;DHT22;23489;49.600;6.138;2023-05-07T15:23:56;22.10;99.90
37646;DHT22;23489;49.600;6.138;2023-05-07T15:26:21;22.20;99.90
37646;DHT22;23489;49.600;6.138;2023-05-07T15:28:47;22.20;99.90
37646;DHT22;23489;49.600;6.138;2023-05-07T15:31:13;22.10;99.90
37646;DHT22;23489;49.600;6.138;2023-05-07T15:33:38;22.10;99.90
37646;DHT22;23489;49.600;6.138;2023-05-07T15:36:04;22.00;99.90
37646;DHT22;23489;49.600;6.138;2023-05-07T15:38:31;21.70;99.90
37646;DHT22;23489;49.600;6.138;2023-05-07T15:40:56;21.50;99.90
37646;DHT22;23489;49.600;6.138;2023-05-07T15:43:22;21.40;99.90
37646;DHT22;23489;49.600;6.138;2023-05-07T15:45:48;21.10;99.90
37646;DHT22;23489;49.600;6.138;2023-05-07T15:48:13;21.20;99.90
37646;DHT22;23489;49.600;6.138;2023-05-07T15:50:39;21.10;99.90
37646;DHT22;23489;49.600;6.138;2023-05-07T15:53:05;21.30;99.90